createdAt,value
2018-06-16T13:51:07.314Z,68.10
2018-06-16T13:53:37.050Z,68.40
2018-06-16T13:56:08.243Z,67.50
2018-06-16T13:58:36.766Z,65.90
2018-06-16T14:01:05.639Z,64.80
2018-06-16T14:03:34.766Z,66.30
2018-06-16T14:06:03.608Z,67.90
2018-06-16T14:08:33.142Z,64.00
2018-06-16T14:11:01.625Z,65.80
2018-06-16T14:13:30.849Z,66.20
2018-06-16T14:15:59.361Z,67.90
2018-06-16T14:21:58.791Z,65.50
2018-06-16T14:24:27.294Z,65.40
2018-06-16T14:26:55.797Z,63.60
2018-06-16T14:29:24.274Z,64.50
2018-06-16T14:31:52.766Z,64.20
2018-06-16T14:34:21.498Z,63.50
2018-06-16T14:36:50.004Z,64.40
2018-06-16T14:39:19.137Z,63.20
2018-06-16T14:41:47.992Z,64.30
2018-06-16T14:44:16.850Z,62.00
2018-06-16T14:46:45.694Z,60.90
2018-06-16T14:49:15.902Z,60.00
2018-06-16T14:51:44.398Z,60.10
2018-06-16T14:54:13.663Z,61.10
2018-06-16T14:56:43.361Z,62.80
2018-06-16T14:59:13.249Z,61.60
2018-06-16T15:01:42.455Z,62.80
2018-06-16T15:04:12.343Z,63.20
2018-06-16T15:06:41.189Z,62.00
2018-06-16T15:09:12.322Z,62.70
2018-06-16T15:11:42.163Z,63.70
2018-06-16T15:14:17.655Z,63.60
2018-06-16T15:16:53.306Z,61.40
2018-06-16T15:19:22.217Z,64.20
2018-06-16T15:21:50.706Z,62.70
2018-06-16T15:24:19.198Z,62.10
2018-06-16T15:26:49.098Z,59.60
2018-06-16T15:29:17.921Z,63.10
2018-06-16T15:31:46.803Z,62.80
2018-06-16T15:34:15.268Z,63.60
2018-06-16T15:36:43.782Z,61.90
2018-06-16T15:39:12.255Z,62.80
2018-06-16T15:41:41.476Z,63.20
2018-06-16T15:44:10.514Z,61.60
2018-06-16T15:46:39.044Z,62.10
2018-06-16T15:49:07.646Z,62.10
2018-06-16T15:51:36.527Z,59.80
2018-06-16T15:54:05.274Z,59.40
2018-06-16T15:56:34.759Z,60.60
2018-06-16T15:59:03.695Z,60.60
2018-06-16T16:01:32.159Z,62.00
2018-06-16T16:04:00.646Z,60.20
2018-06-16T16:06:29.171Z,59.90
2018-06-16T16:08:57.618Z,59.40
2018-06-16T16:11:26.111Z,59.50
2018-06-16T16:13:54.727Z,62.20
2018-06-16T16:16:23.266Z,61.60
2018-06-16T16:18:51.790Z,61.40
2018-06-16T16:21:20.311Z,60.70
2018-06-16T16:23:49.378Z,61.70
2018-06-16T16:26:17.846Z,61.80
2018-06-16T16:28:46.582Z,61.70
2018-06-16T16:31:15.574Z,60.50
2018-06-16T16:33:44.967Z,59.50
2018-06-16T16:36:14.508Z,60.30
2018-06-16T16:38:43.338Z,62.60
2018-06-16T16:41:14.710Z,62.30
2018-06-16T16:43:43.173Z,62.60
2018-06-16T16:46:12.611Z,61.70
2018-06-16T16:48:41.246Z,64.80
2018-06-16T16:51:09.742Z,63.10
2018-06-16T16:53:39.474Z,64.70
2018-06-16T16:56:07.954Z,65.30
2018-06-16T16:58:36.415Z,65.40
2018-06-16T17:01:04.944Z,66.40
2018-06-16T17:03:35.167Z,66.20
2018-06-16T17:06:03.678Z,65.70
2018-06-16T17:08:32.147Z,67.10
2018-06-16T17:11:00.939Z,67.80
2018-06-16T17:13:29.409Z,65.20
2018-06-16T17:15:57.883Z,65.90
2018-06-16T17:18:26.664Z,65.50
2018-06-16T17:20:56.211Z,65.80
2018-06-16T17:23:24.902Z,64.90
2018-06-16T17:25:53.398Z,65.60
2018-06-16T17:28:21.942Z,66.20
2018-06-16T17:30:50.809Z,65.90
2018-06-16T17:33:20.941Z,66.90
2018-06-16T17:35:49.723Z,67.10
2018-06-16T17:38:18.721Z,67.60
2018-06-16T17:40:47.498Z,68.90
2018-06-16T17:43:16.454Z,68.70
2018-06-16T17:45:45.200Z,68.80
2018-06-16T17:48:13.689Z,69.40
2018-06-16T17:50:43.895Z,69.90
2018-06-16T17:53:14.268Z,70.60
2018-06-16T17:55:44.258Z,70.10
2018-06-16T17:58:13.674Z,72.10
2018-06-16T18:00:42.474Z,71.40
2018-06-16T18:03:10.992Z,73.20
2018-06-16T18:05:39.498Z,72.60
2018-06-16T18:08:08.940Z,73.30
2018-06-16T18:10:37.951Z,74.00
2018-06-16T18:13:06.981Z,76.60
2018-06-16T18:15:35.524Z,79.20
2018-06-16T18:18:04.136Z,80.80
2018-06-16T18:20:33.183Z,87.10
2018-06-16T18:23:02.306Z,92.70
2018-06-16T18:25:31.891Z,96.20
2018-06-16T18:28:02.309Z,99.90
2018-06-16T18:30:32.578Z,99.90
2018-06-16T18:33:01.856Z,99.90
2018-06-16T18:35:30.675Z,99.90
2018-06-16T18:38:00.174Z,99.90
2018-06-16T18:40:28.787Z,99.90
2018-06-16T18:42:57.523Z,99.90
2018-06-16T18:45:26.034Z,99.90
2018-06-16T18:47:54.750Z,99.90
2018-06-16T18:50:24.221Z,99.90
2018-06-16T18:52:53.409Z,99.90
2018-06-16T18:55:21.894Z,99.90
2018-06-16T18:57:51.247Z,99.90
2018-06-16T19:00:21.012Z,99.90
2018-06-16T19:02:49.760Z,99.90
2018-06-16T19:05:18.228Z,99.90
2018-06-16T19:07:47.038Z,99.90
2018-06-16T19:10:15.793Z,99.90
2018-06-16T19:12:44.295Z,99.90
2018-06-16T19:15:12.798Z,99.90
2018-06-16T19:17:41.352Z,99.90
2018-06-16T19:20:09.822Z,99.90
2018-06-16T19:22:38.485Z,99.90
2018-06-16T19:25:07.393Z,99.90
2018-06-16T19:27:35.862Z,99.90
2018-06-16T19:30:04.763Z,99.90
2018-06-16T19:32:34.142Z,99.90
2018-06-16T19:35:02.595Z,99.90
2018-06-16T19:37:31.053Z,99.90
2018-06-16T19:39:59.537Z,99.90
2018-06-16T19:42:27.990Z,99.90
2018-06-16T19:44:56.473Z,99.90
2018-06-16T19:47:25.215Z,99.90
2018-06-16T19:49:53.679Z,99.90
2018-06-16T19:52:22.133Z,99.90
2018-06-16T19:54:50.604Z,99.90
2018-06-16T19:57:19.068Z,99.90
2018-06-16T19:59:47.547Z,99.90
2018-06-16T20:02:16.055Z,99.90
2018-06-16T20:04:44.559Z,99.90
2018-06-16T20:07:13.035Z,99.90
2018-06-16T20:09:41.507Z,99.90
2018-06-16T20:12:09.979Z,99.90
2018-06-16T20:14:38.755Z,99.90
2018-06-16T20:17:07.860Z,99.90
2018-06-16T20:19:36.330Z,99.90
2018-06-16T20:22:05.379Z,99.90
2018-06-16T20:24:33.859Z,99.90
2018-06-16T20:27:02.350Z,99.90
2018-06-16T20:29:30.891Z,99.90
2018-06-16T20:31:59.438Z,99.90
2018-06-16T20:34:28.272Z,99.90
2018-06-16T20:36:57.102Z,99.90
2018-06-16T20:39:25.933Z,99.90
2018-06-16T20:41:54.419Z,99.90
2018-06-16T20:44:22.895Z,99.90
2018-06-16T20:46:51.378Z,99.90
2018-06-16T20:49:19.842Z,99.90
2018-06-16T20:51:48.356Z,99.90
2018-06-16T20:54:17.097Z,99.90
2018-06-16T20:56:45.581Z,99.90
2018-06-16T20:59:14.074Z,99.90
2018-06-16T21:01:42.560Z,99.90
2018-06-16T21:04:11.031Z,99.90
2018-06-16T21:06:39.556Z,99.90
2018-06-16T21:09:10.061Z,99.90
2018-06-16T21:11:38.569Z,99.90
2018-06-16T21:14:07.090Z,99.90
2018-06-16T21:16:35.789Z,99.90
2018-06-16T21:19:04.727Z,99.90
2018-06-16T21:21:33.227Z,99.90
2018-06-16T21:24:01.864Z,99.90
2018-06-16T21:26:30.347Z,99.90
2018-06-16T21:28:58.829Z,99.90
2018-06-16T21:31:27.323Z,99.90
2018-06-16T21:33:55.821Z,99.90
2018-06-16T21:36:24.301Z,99.90
2018-06-16T21:38:52.800Z,99.90
2018-06-16T21:41:21.291Z,99.90
2018-06-16T21:43:49.798Z,99.90
2018-06-16T21:46:18.285Z,99.90
2018-06-16T21:48:46.762Z,99.90
2018-06-16T21:51:15.245Z,99.90
2018-06-16T21:53:43.714Z,99.90
2018-06-16T21:56:12.180Z,99.90
2018-06-16T21:58:40.674Z,99.90
2018-06-16T22:01:09.387Z,99.90
2018-06-16T22:06:06.066Z,99.90
2018-06-16T22:08:34.582Z,99.90
2018-06-16T22:11:04.352Z,99.90
2018-06-16T22:13:32.865Z,99.90
2018-06-16T22:16:01.357Z,99.90
2018-06-16T22:18:29.823Z,99.90
2018-06-16T22:20:58.312Z,99.90
2018-06-16T22:23:26.773Z,99.90
2018-06-16T22:28:23.476Z,99.90
2018-06-16T22:30:51.998Z,99.90
2018-06-16T22:33:20.485Z,99.90
2018-06-16T22:35:49.575Z,99.90
2018-06-16T22:38:18.047Z,99.90
2018-06-16T22:40:46.506Z,99.90
2018-06-16T22:43:14.959Z,99.90
2018-06-16T22:45:43.422Z,99.90
2018-06-16T22:48:11.887Z,99.90
2018-06-16T22:50:40.375Z,99.90
2018-06-16T22:53:08.834Z,99.90
2018-06-16T22:55:37.302Z,99.90
2018-06-16T22:58:05.818Z,99.90
2018-06-16T23:00:34.730Z,99.90
2018-06-16T23:03:03.253Z,99.90
2018-06-16T23:05:31.751Z,99.90
2018-06-16T23:08:00.235Z,99.90
2018-06-16T23:10:28.779Z,99.90
2018-06-16T23:12:57.248Z,99.90
2018-06-16T23:15:25.731Z,99.90
2018-06-16T23:17:54.197Z,99.90
2018-06-16T23:20:22.689Z,99.90
2018-06-16T23:22:51.695Z,99.90
2018-06-16T23:25:20.183Z,99.90
2018-06-16T23:27:48.670Z,99.90
2018-06-16T23:30:17.163Z,99.90
2018-06-16T23:32:45.635Z,99.90
2018-06-16T23:35:14.107Z,99.90
2018-06-16T23:37:42.591Z,99.90
2018-06-16T23:40:11.061Z,99.90
2018-06-16T23:42:39.544Z,99.90
2018-06-16T23:45:08.032Z,99.90
2018-06-16T23:47:36.495Z,99.90
2018-06-16T23:50:05.341Z,99.90
2018-06-16T23:52:33.833Z,99.90
2018-06-16T23:55:02.320Z,99.90
2018-06-16T23:57:30.884Z,99.90
2018-06-16T23:59:59.406Z,99.90
